sensor_id;sensor_type;location;lat;lon;timestamp;temperature;humidity
33328;DHT22;19692;52.998;9.116;2024-02-23T00:00:39;9.00;99.90
33328;DHT22;19692;52.998;9.116;2024-02-23T00:03:05;9.00;99.90
33328;DHT22;19692;52.998;9.116;2024-02-23T00:05:31;8.90;99.90
33328;DHT22;19692;52.998;9.116;2024-02-23T00:07:57;9.00;99.90
33328;DHT22;19692;52.998;9.116;2024-02-23T00:10:25;8.90;99.90
33328;DHT22;19692;52.998;9.116;2024-02-23T00:12:52;8.80;99.90
33328;DHT22;19692;52.998;9.116;2024-02-23T00:15:18;8.80;99.90
33328;DHT22;19692;52.998;9.116;2024-02-23T00:17:43;8.70;99.90
33328;DHT22;19692;52.998;9.116;2024-02-23T00:20:10;8.60;99.90
33328;DHT22;19692;52.998;9.116;2024-02-23T00:22:37;8.50;99.90
33328;DHT22;19692;52.998;9.116;2024-02-23T00:25:02;8.40;99.90
33328;DHT22;19692;52.998;9.116;2024-02-23T00:27:28;8.40;99.90
33328;DHT22;19692;52.998;9.116;2024-02-23T00:29:54;8.30;99.90
33328;DHT22;19692;52.998;9.116;2024-02-23T00:32:20;8.20;99.90
33328;DHT22;19692;52.998;9.116;2024-02-23T00:34:46;8.10;99.90
33328;DHT22;19692;52.998;9.116;2024-02-23T00:37:12;8.00;99.90
33328;DHT22;19692;52.998;9.116;2024-02-23T00:39:37;7.90;99.90
33328;DHT22;19692;52.998;9.116;2024-02-23T00:42:03;7.70;99.90
33328;DHT22;19692;52.998;9.116;2024-02-23T00:44:29;7.50;99.90
33328;DHT22;19692;52.998;9.116;2024-02-23T00:46:55;7.40;99.90
33328;DHT22;19692;52.998;9.116;2024-02-23T00:49:23;7.20;99.90
33328;DHT22;19692;52.998;9.116;2024-02-23T00:51:49;7.10;99.90
33328;DHT22;19692;52.998;9.116;2024-02-23T00:54:15;7.10;99.90
33328;DHT22;19692;52.998;9.116;2024-02-23T00:56:41;7.00;99.90
33328;DHT22;19692;52.998;9.116;2024-02-23T00:59:06;7.00;99.90
33328;DHT22;19692;52.998;9.116;2024-02-23T01:01:32;6.90;99.90
33328;DHT22;19692;52.998;9.116;2024-02-23T01:03:58;6.90;99.90
33328;DHT22;19692;52.998;9.116;2024-02-23T01:06:24;6.90;99.90
33328;DHT22;19692;52.998;9.116;2024-02-23T01:08:50;6.90;99.90
33328;DHT22;19692;52.998;9.116;2024-02-23T01:11:16;6.90;99.90
33328;DHT22;19692;52.998;9.116;2024-02-23T01:13:42;6.80;99.90
33328;DHT22;19692;52.998;9.116;2024-02-23T01:16:08;6.80;99.90
33328;DHT22;19692;52.998;9.116;2024-02-23T01:18:34;6.80;99.90
33328;DHT22;19692;52.998;9.116;2024-02-23T01:21:00;6.90;99.90
33328;DHT22;19692;52.998;9.116;2024-02-23T01:23:26;6.80;99.90
33328;DHT22;19692;52.998;9.116;2024-02-23T01:25:52;6.70;99.90
33328;DHT22;19692;52.998;9.116;2024-02-23T01:28:17;6.70;99.90
33328;DHT22;19692;52.998;9.116;2024-02-23T01:30:43;6.60;99.90
33328;DHT22;19692;52.998;9.116;2024-02-23T01:33:09;6.60;99.90
33328;DHT22;19692;52.998;9.116;2024-02-23T01:35:34;6.60;99.90
33328;DHT22;19692;52.998;9.116;2024-02-23T01:38:02;6.50;99.90
33328;DHT22;19692;52.998;9.116;2024-02-23T01:40:28;6.50;99.90
33328;DHT22;19692;52.998;9.116;2024-02-23T01:43:06;6.30;99.90
33328;DHT22;19692;52.998;9.116;2024-02-23T01:45:32;6.10;99.90
33328;DHT22;19692;52.998;9.116;2024-02-23T01:47:58;6.00;99.90
33328;DHT22;19692;52.998;9.116;2024-02-23T01:50:25;6.00;99.90
33328;DHT22;19692;52.998;9.116;2024-02-23T01:52:52;6.00;99.90
33328;DHT22;19692;52.998;9.116;2024-02-23T01:55:21;6.00;99.90
33328;DHT22;19692;52.998;9.116;2024-02-23T01:57:48;5.90;99.90
33328;DHT22;19692;52.998;9.116;2024-02-23T02:00:16;5.70;99.90
33328;DHT22;19692;52.998;9.116;2024-02-23T02:02:44;5.70;99.90
33328;DHT22;19692;52.998;9.116;2024-02-23T02:05:10;5.60;99.90
33328;DHT22;19692;52.998;9.116;2024-02-23T02:07:37;5.50;99.90
33328;DHT22;19692;52.998;9.116;2024-02-23T02:10:05;5.50;99.90
33328;DHT22;19692;52.998;9.116;2024-02-23T02:12:32;5.50;99.90
33328;DHT22;19692;52.998;9.116;2024-02-23T02:14:58;5.40;99.90
33328;DHT22;19692;52.998;9.116;2024-02-23T02:17:27;5.40;99.90
33328;DHT22;19692;52.998;9.116;2024-02-23T02:19:53;5.50;99.90
33328;DHT22;19692;52.998;9.116;2024-02-23T02:22:19;5.40;99.90
33328;DHT22;19692;52.998;9.116;2024-02-23T02:24:45;5.40;99.90
33328;DHT22;19692;52.998;9.116;2024-02-23T02:27:13;5.30;99.90
33328;DHT22;19692;52.998;9.116;2024-02-23T02:29:39;5.30;99.90
33328;DHT22;19692;52.998;9.116;2024-02-23T02:32:05;5.20;99.90
33328;DHT22;19692;52.998;9.116;2024-02-23T02:34:31;5.20;99.90
33328;DHT22;19692;52.998;9.116;2024-02-23T02:36:57;5.10;99.90
33328;DHT22;19692;52.998;9.116;2024-02-23T02:39:23;5.20;99.90
33328;DHT22;19692;52.998;9.116;2024-02-23T02:41:49;5.20;99.90
33328;DHT22;19692;52.998;9.116;2024-02-23T02:44:14;5.20;99.90
33328;DHT22;19692;52.998;9.116;2024-02-23T02:46:41;5.20;99.90
33328;DHT22;19692;52.998;9.116;2024-02-23T02:49:07;5.20;99.90
33328;DHT22;19692;52.998;9.116;2024-02-23T02:51:33;5.20;99.90
33328;DHT22;19692;52.998;9.116;2024-02-23T02:53:59;5.20;99.90
33328;DHT22;19692;52.998;9.116;2024-02-23T02:56:24;5.20;99.90
33328;DHT22;19692;52.998;9.116;2024-02-23T02:58:50;5.20;99.90
33328;DHT22;19692;52.998;9.116;2024-02-23T03:01:16;5.30;99.90
33328;DHT22;19692;52.998;9.116;2024-02-23T03:03:42;5.20;99.90
33328;DHT22;19692;52.998;9.116;2024-02-23T03:06:07;5.30;99.90
33328;DHT22;19692;52.998;9.116;2024-02-23T03:08:33;5.20;99.90
33328;DHT22;19692;52.998;9.116;2024-02-23T03:10:59;5.20;99.90
33328;DHT22;19692;52.998;9.116;2024-02-23T03:13:25;5.20;99.90
33328;DHT22;19692;52.998;9.116;2024-02-23T03:15:51;5.10;99.90
33328;DHT22;19692;52.998;9.116;2024-02-23T03:18:16;5.10;99.90
33328;DHT22;19692;52.998;9.116;2024-02-23T03:20:42;5.10;99.90
33328;DHT22;19692;52.998;9.116;2024-02-23T03:23:08;5.10;99.90
33328;DHT22;19692;52.998;9.116;2024-02-23T03:25:34;5.10;99.90
33328;DHT22;19692;52.998;9.116;2024-02-23T03:27:59;5.10;99.90
33328;DHT22;19692;52.998;9.116;2024-02-23T03:30:26;5.10;99.90
33328;DHT22;19692;52.998;9.116;2024-02-23T03:32:51;5.10;99.90
33328;DHT22;19692;52.998;9.116;2024-02-23T03:35:17;5.10;99.90
33328;DHT22;19692;52.998;9.116;2024-02-23T03:37:43;5.10;99.90
33328;DHT22;19692;52.998;9.116;2024-02-23T03:40:09;5.10;99.90
33328;DHT22;19692;52.998;9.116;2024-02-23T03:42:36;5.10;99.90
33328;DHT22;19692;52.998;9.116;2024-02-23T03:45:02;5.00;99.90
33328;DHT22;19692;52.998;9.116;2024-02-23T03:47:28;5.00;99.90
33328;DHT22;19692;52.998;9.116;2024-02-23T03:49:54;5.10;99.90
33328;DHT22;19692;52.998;9.116;2024-02-23T03:52:20;5.10;99.90
33328;DHT22;19692;52.998;9.116;2024-02-23T03:54:45;5.20;99.90
33328;DHT22;19692;52.998;9.116;2024-02-23T03:57:11;5.20;99.90
33328;DHT22;19692;52.998;9.116;2024-02-23T03:59:37;5.30;99.90
33328;DHT22;19692;52.998;9.116;2024-02-23T04:02:03;5.30;99.90
33328;DHT22;19692;52.998;9.116;2024-02-23T04:04:30;5.30;99.90
33328;DHT22;19692;52.998;9.116;2024-02-23T04:06:55;5.30;99.90
33328;DHT22;19692;52.998;9.116;2024-02-23T04:09:21;5.30;99.90
33328;DHT22;19692;52.998;9.116;2024-02-23T04:11:48;5.30;99.90
33328;DHT22;19692;52.998;9.116;2024-02-23T04:14:14;5.30;99.90
33328;DHT22;19692;52.998;9.116;2024-02-23T04:16:40;5.30;99.90
33328;DHT22;19692;52.998;9.116;2024-02-23T04:19:05;5.30;99.90
33328;DHT22;19692;52.998;9.116;2024-02-23T04:21:31;5.30;99.90
33328;DHT22;19692;52.998;9.116;2024-02-23T04:23:57;5.30;99.90
33328;DHT22;19692;52.998;9.116;2024-02-23T04:26:23;5.40;99.90
33328;DHT22;19692;52.998;9.116;2024-02-23T04:28:48;5.40;99.90
33328;DHT22;19692;52.998;9.116;2024-02-23T04:31:14;5.40;99.90
33328;DHT22;19692;52.998;9.116;2024-02-23T04:33:40;5.40;99.90
33328;DHT22;19692;52.998;9.116;2024-02-23T04:36:06;5.40;99.90
33328;DHT22;19692;52.998;9.116;2024-02-23T04:38:33;5.40;99.90
33328;DHT22;19692;52.998;9.116;2024-02-23T04:41:03;5.30;99.90
33328;DHT22;19692;52.998;9.116;2024-02-23T04:43:29;5.30;99.90
33328;DHT22;19692;52.998;9.116;2024-02-23T04:45:55;5.30;99.90
33328;DHT22;19692;52.998;9.116;2024-02-23T04:48:21;5.20;99.90
33328;DHT22;19692;52.998;9.116;2024-02-23T04:50:46;5.20;99.90
33328;DHT22;19692;52.998;9.116;2024-02-23T04:53:12;5.10;99.90
33328;DHT22;19692;52.998;9.116;2024-02-23T04:55:38;5.00;99.90
33328;DHT22;19692;52.998;9.116;2024-02-23T04:58:04;4.90;99.90
33328;DHT22;19692;52.998;9.116;2024-02-23T05:00:30;4.90;99.90
33328;DHT22;19692;52.998;9.116;2024-02-23T05:03:02;4.80;99.90
33328;DHT22;19692;52.998;9.116;2024-02-23T05:05:29;4.70;99.90
33328;DHT22;19692;52.998;9.116;2024-02-23T05:07:56;4.60;99.90
33328;DHT22;19692;52.998;9.116;2024-02-23T05:10:22;4.50;99.90
33328;DHT22;19692;52.998;9.116;2024-02-23T05:12:48;4.40;99.90
33328;DHT22;19692;52.998;9.116;2024-02-23T05:15:14;4.30;99.90
33328;DHT22;19692;52.998;9.116;2024-02-23T05:17:40;4.20;99.90
33328;DHT22;19692;52.998;9.116;2024-02-23T05:20:07;4.20;99.90
33328;DHT22;19692;52.998;9.116;2024-02-23T05:22:39;4.20;99.90
33328;DHT22;19692;52.998;9.116;2024-02-23T05:25:06;4.20;99.90
33328;DHT22;19692;52.998;9.116;2024-02-23T05:27:32;4.10;99.90
33328;DHT22;19692;52.998;9.116;2024-02-23T05:29:58;4.10;99.90
33328;DHT22;19692;52.998;9.116;2024-02-23T05:32:24;4.20;99.90
33328;DHT22;19692;52.998;9.116;2024-02-23T05:34:49;4.10;99.90
33328;DHT22;19692;52.998;9.116;2024-02-23T05:37:18;4.10;99.90
33328;DHT22;19692;52.998;9.116;2024-02-23T05:39:44;4.10;99.90
33328;DHT22;19692;52.998;9.116;2024-02-23T05:42:12;4.20;99.90
33328;DHT22;19692;52.998;9.116;2024-02-23T05:44:38;4.30;99.90
33328;DHT22;19692;52.998;9.116;2024-02-23T05:47:05;4.20;99.90
33328;DHT22;19692;52.998;9.116;2024-02-23T05:49:30;4.30;99.90
33328;DHT22;19692;52.998;9.116;2024-02-23T05:51:56;4.20;99.90
33328;DHT22;19692;52.998;9.116;2024-02-23T05:54:22;4.20;99.90
33328;DHT22;19692;52.998;9.116;2024-02-23T05:56:48;4.30;99.90
33328;DHT22;19692;52.998;9.116;2024-02-23T05:59:15;4.40;99.90
33328;DHT22;19692;52.998;9.116;2024-02-23T06:01:40;4.40;99.90
33328;DHT22;19692;52.998;9.116;2024-02-23T06:04:06;4.50;99.90
33328;DHT22;19692;52.998;9.116;2024-02-23T06:06:32;4.60;99.90
33328;DHT22;19692;52.998;9.116;2024-02-23T06:08:58;4.70;99.90
33328;DHT22;19692;52.998;9.116;2024-02-23T06:11:24;4.70;99.90
33328;DHT22;19692;52.998;9.116;2024-02-23T06:13:49;4.70;99.90
33328;DHT22;19692;52.998;9.116;2024-02-23T06:16:15;4.80;99.90
33328;DHT22;19692;52.998;9.116;2024-02-23T06:18:41;4.80;99.90
33328;DHT22;19692;52.998;9.116;2024-02-23T06:21:17;4.90;99.90
33328;DHT22;19692;52.998;9.116;2024-02-23T06:23:43;5.00;99.90
33328;DHT22;19692;52.998;9.116;2024-02-23T06:26:10;5.10;99.90
33328;DHT22;19692;52.998;9.116;2024-02-23T06:28:36;5.10;99.90
33328;DHT22;19692;52.998;9.116;2024-02-23T06:31:05;5.10;99.90
33328;DHT22;19692;52.998;9.116;2024-02-23T06:33:31;5.10;99.90
33328;DHT22;19692;52.998;9.116;2024-02-23T06:35:57;5.10;99.90
33328;DHT22;19692;52.998;9.116;2024-02-23T06:38:23;5.20;99.90
33328;DHT22;19692;52.998;9.116;2024-02-23T06:40:48;5.20;99.90
33328;DHT22;19692;52.998;9.116;2024-02-23T06:43:14;5.20;99.90
33328;DHT22;19692;52.998;9.116;2024-02-23T06:45:40;5.20;99.90
33328;DHT22;19692;52.998;9.116;2024-02-23T06:48:06;5.20;99.90
33328;DHT22;19692;52.998;9.116;2024-02-23T06:50:32;5.20;99.90
33328;DHT22;19692;52.998;9.116;2024-02-23T06:52:58;5.20;99.90
33328;DHT22;19692;52.998;9.116;2024-02-23T06:55:24;5.30;99.90
33328;DHT22;19692;52.998;9.116;2024-02-23T06:57:49;5.30;99.90
33328;DHT22;19692;52.998;9.116;2024-02-23T07:00:15;5.30;99.90
33328;DHT22;19692;52.998;9.116;2024-02-23T07:02:41;5.20;99.90
33328;DHT22;19692;52.998;9.116;2024-02-23T07:05:07;5.20;99.90
33328;DHT22;19692;52.998;9.116;2024-02-23T07:07:34;5.20;99.90
33328;DHT22;19692;52.998;9.116;2024-02-23T07:10:00;5.30;99.90
33328;DHT22;19692;52.998;9.116;2024-02-23T07:12:26;5.40;99.90
33328;DHT22;19692;52.998;9.116;2024-02-23T07:14:54;5.40;99.90
33328;DHT22;19692;52.998;9.116;2024-02-23T07:17:20;5.40;99.90
33328;DHT22;19692;52.998;9.116;2024-02-23T07:19:46;5.40;99.90
33328;DHT22;19692;52.998;9.116;2024-02-23T07:22:13;5.40;99.90
33328;DHT22;19692;52.998;9.116;2024-02-23T07:24:42;5.50;99.90
33328;DHT22;19692;52.998;9.116;2024-02-23T07:27:08;5.40;99.90
33328;DHT22;19692;52.998;9.116;2024-02-23T07:29:34;5.50;99.90
33328;DHT22;19692;52.998;9.116;2024-02-23T07:32:00;5.50;99.90
33328;DHT22;19692;52.998;9.116;2024-02-23T07:34:26;5.50;99.90
33328;DHT22;19692;52.998;9.116;2024-02-23T07:36:52;5.50;99.90
33328;DHT22;19692;52.998;9.116;2024-02-23T07:39:19;5.50;99.90
33328;DHT22;19692;52.998;9.116;2024-02-23T07:41:45;5.60;99.90
33328;DHT22;19692;52.998;9.116;2024-02-23T07:44:11;5.60;99.90
33328;DHT22;19692;52.998;9.116;2024-02-23T07:46:37;5.50;99.90
33328;DHT22;19692;52.998;9.116;2024-02-23T07:49:04;5.60;99.90
33328;DHT22;19692;52.998;9.116;2024-02-23T07:51:31;5.60;99.90
33328;DHT22;19692;52.998;9.116;2024-02-23T07:53:57;5.70;99.90
33328;DHT22;19692;52.998;9.116;2024-02-23T07:56:23;5.80;99.90
33328;DHT22;19692;52.998;9.116;2024-02-23T07:58:49;5.90;99.90
33328;DHT22;19692;52.998;9.116;2024-02-23T08:01:15;5.90;99.90
33328;DHT22;19692;52.998;9.116;2024-02-23T08:03:41;5.90;99.90
33328;DHT22;19692;52.998;9.116;2024-02-23T08:06:07;6.00;99.90
33328;DHT22;19692;52.998;9.116;2024-02-23T08:08:32;6.00;99.90
33328;DHT22;19692;52.998;9.116;2024-02-23T08:11:03;6.10;99.90
33328;DHT22;19692;52.998;9.116;2024-02-23T08:13:29;6.10;99.90
33328;DHT22;19692;52.998;9.116;2024-02-23T08:15:56;6.10;99.90
33328;DHT22;19692;52.998;9.116;2024-02-23T08:18:22;6.20;99.90
33328;DHT22;19692;52.998;9.116;2024-02-23T08:20:49;6.30;99.90
33328;DHT22;19692;52.998;9.116;2024-02-23T08:23:15;6.30;99.90
33328;DHT22;19692;52.998;9.116;2024-02-23T08:25:40;6.30;99.90
33328;DHT22;19692;52.998;9.116;2024-02-23T08:28:06;6.40;99.90
33328;DHT22;19692;52.998;9.116;2024-02-23T08:30:33;6.40;99.90
33328;DHT22;19692;52.998;9.116;2024-02-23T08:32:59;6.40;99.90
33328;DHT22;19692;52.998;9.116;2024-02-23T08:35:25;6.50;99.90
33328;DHT22;19692;52.998;9.116;2024-02-23T08:37:51;6.60;99.90
33328;DHT22;19692;52.998;9.116;2024-02-23T08:40:17;6.70;99.90
33328;DHT22;19692;52.998;9.116;2024-02-23T08:42:43;6.80;99.90
33328;DHT22;19692;52.998;9.116;2024-02-23T08:45:09;6.80;99.90
33328;DHT22;19692;52.998;9.116;2024-02-23T08:47:38;6.90;99.90
33328;DHT22;19692;52.998;9.116;2024-02-23T08:50:04;7.00;99.90
33328;DHT22;19692;52.998;9.116;2024-02-23T08:52:30;7.00;99.90
33328;DHT22;19692;52.998;9.116;2024-02-23T08:54:56;7.10;99.90
33328;DHT22;19692;52.998;9.116;2024-02-23T08:57:22;7.10;99.90
33328;DHT22;19692;52.998;9.116;2024-02-23T08:59:51;7.10;99.90
33328;DHT22;19692;52.998;9.116;2024-02-23T09:02:17;7.30;99.90
33328;DHT22;19692;52.998;9.116;2024-02-23T09:04:44;7.30;99.90
33328;DHT22;19692;52.998;9.116;2024-02-23T09:07:11;7.30;99.90
33328;DHT22;19692;52.998;9.116;2024-02-23T09:09:37;7.30;99.90
33328;DHT22;19692;52.998;9.116;2024-02-23T09:12:03;7.40;99.90
33328;DHT22;19692;52.998;9.116;2024-02-23T09:14:29;7.40;99.90
33328;DHT22;19692;52.998;9.116;2024-02-23T09:16:55;7.40;99.90
33328;DHT22;19692;52.998;9.116;2024-02-23T09:19:20;7.30;99.90
33328;DHT22;19692;52.998;9.116;2024-02-23T09:21:47;7.20;99.90
33328;DHT22;19692;52.998;9.116;2024-02-23T09:24:13;7.30;99.90
33328;DHT22;19692;52.998;9.116;2024-02-23T09:26:39;7.20;99.90
33328;DHT22;19692;52.998;9.116;2024-02-23T09:29:05;7.20;99.90
33328;DHT22;19692;52.998;9.116;2024-02-23T09:31:31;7.20;99.90
33328;DHT22;19692;52.998;9.116;2024-02-23T09:33:57;7.20;99.90
33328;DHT22;19692;52.998;9.116;2024-02-23T09:36:23;7.30;99.90
33328;DHT22;19692;52.998;9.116;2024-02-23T09:38:50;7.30;99.90
33328;DHT22;19692;52.998;9.116;2024-02-23T09:41:21;7.30;99.90
33328;DHT22;19692;52.998;9.116;2024-02-23T09:43:48;7.30;99.90
33328;DHT22;19692;52.998;9.116;2024-02-23T09:46:15;7.30;99.90
33328;DHT22;19692;52.998;9.116;2024-02-23T09:48:45;7.30;99.90
33328;DHT22;19692;52.998;9.116;2024-02-23T09:51:13;7.30;99.90
33328;DHT22;19692;52.998;9.116;2024-02-23T09:53:41;7.30;99.90
33328;DHT22;19692;52.998;9.116;2024-02-23T09:56:09;7.30;99.90
33328;DHT22;19692;52.998;9.116;2024-02-23T09:58:39;7.20;99.90
33328;DHT22;19692;52.998;9.116;2024-02-23T10:01:07;7.20;99.90
33328;DHT22;19692;52.998;9.116;2024-02-23T10:03:32;7.30;99.90
33328;DHT22;19692;52.998;9.116;2024-02-23T10:05:59;7.20;99.90
33328;DHT22;19692;52.998;9.116;2024-02-23T10:08:28;7.20;99.90
33328;DHT22;19692;52.998;9.116;2024-02-23T10:10:55;7.30;99.90
33328;DHT22;19692;52.998;9.116;2024-02-23T10:17:03;7.40;99.90
33328;DHT22;19692;52.998;9.116;2024-02-23T10:19:29;7.40;99.90
33328;DHT22;19692;52.998;9.116;2024-02-23T10:21:56;7.30;99.90
33328;DHT22;19692;52.998;9.116;2024-02-23T10:24:23;7.40;99.90
33328;DHT22;19692;52.998;9.116;2024-02-23T10:26:51;7.30;99.90
33328;DHT22;19692;52.998;9.116;2024-02-23T10:29:17;7.40;99.90
33328;DHT22;19692;52.998;9.116;2024-02-23T10:31:46;7.40;99.90
33328;DHT22;19692;52.998;9.116;2024-02-23T10:34:18;7.40;99.90
33328;DHT22;19692;52.998;9.116;2024-02-23T10:36:45;7.40;99.90
33328;DHT22;19692;52.998;9.116;2024-02-23T10:39:18;7.40;99.90
33328;DHT22;19692;52.998;9.116;2024-02-23T10:41:55;7.40;99.90
33328;DHT22;19692;52.998;9.116;2024-02-23T10:44:24;7.40;99.90
33328;DHT22;19692;52.998;9.116;2024-02-23T10:46:50;7.40;99.90
33328;DHT22;19692;52.998;9.116;2024-02-23T10:49:17;7.40;99.90
33328;DHT22;19692;52.998;9.116;2024-02-23T10:51:46;7.40;99.90
33328;DHT22;19692;52.998;9.116;2024-02-23T10:54:14;7.40;99.90
33328;DHT22;19692;52.998;9.116;2024-02-23T10:56:42;7.40;99.90
33328;DHT22;19692;52.998;9.116;2024-02-23T10:59:08;7.50;99.90
33328;DHT22;19692;52.998;9.116;2024-02-23T11:01:35;7.50;99.90
33328;DHT22;19692;52.998;9.116;2024-02-23T11:04:02;7.60;99.90
33328;DHT22;19692;52.998;9.116;2024-02-23T11:06:28;7.60;99.90
33328;DHT22;19692;52.998;9.116;2024-02-23T11:09:05;7.60;99.90
33328;DHT22;19692;52.998;9.116;2024-02-23T11:11:32;7.50;99.90
33328;DHT22;19692;52.998;9.116;2024-02-23T11:14:02;7.60;99.90
33328;DHT22;19692;52.998;9.116;2024-02-23T11:16:31;7.70;99.90
33328;DHT22;19692;52.998;9.116;2024-02-23T11:19:05;7.70;99.90
33328;DHT22;19692;52.998;9.116;2024-02-23T11:21:35;7.60;99.90
33328;DHT22;19692;52.998;9.116;2024-02-23T11:24:06;7.70;99.90
33328;DHT22;19692;52.998;9.116;2024-02-23T11:26:32;7.80;99.90
33328;DHT22;19692;52.998;9.116;2024-02-23T11:29:10;7.90;99.90
33328;DHT22;19692;52.998;9.116;2024-02-23T11:31:44;7.90;99.90
33328;DHT22;19692;52.998;9.116;2024-02-23T11:34:11;7.90;99.90
33328;DHT22;19692;52.998;9.116;2024-02-23T11:36:38;8.00;99.90
33328;DHT22;19692;52.998;9.116;2024-02-23T11:39:05;8.00;99.90
33328;DHT22;19692;52.998;9.116;2024-02-23T11:41:31;8.10;99.90
33328;DHT22;19692;52.998;9.116;2024-02-23T11:43:57;8.20;99.90
33328;DHT22;19692;52.998;9.116;2024-02-23T11:46:26;8.40;99.90
33328;DHT22;19692;52.998;9.116;2024-02-23T11:48:51;8.70;99.90
33328;DHT22;19692;52.998;9.116;2024-02-23T11:51:20;9.10;99.90
33328;DHT22;19692;52.998;9.116;2024-02-23T11:53:47;9.20;99.90
33328;DHT22;19692;52.998;9.116;2024-02-23T11:56:13;9.00;99.90
33328;DHT22;19692;52.998;9.116;2024-02-23T11:58:42;8.80;99.90
33328;DHT22;19692;52.998;9.116;2024-02-23T12:01:08;8.80;99.90
33328;DHT22;19692;52.998;9.116;2024-02-23T12:03:35;8.80;99.90
33328;DHT22;19692;52.998;9.116;2024-02-23T12:06:02;8.80;99.90
33328;DHT22;19692;52.998;9.116;2024-02-23T12:08:30;9.00;99.90
33328;DHT22;19692;52.998;9.116;2024-02-23T12:11:07;9.00;99.90
33328;DHT22;19692;52.998;9.116;2024-02-23T12:13:36;8.90;99.90
33328;DHT22;19692;52.998;9.116;2024-02-23T12:16:03;8.90;99.90
33328;DHT22;19692;52.998;9.116;2024-02-23T12:18:33;8.90;99.90
33328;DHT22;19692;52.998;9.116;2024-02-23T12:21:02;8.90;99.90
33328;DHT22;19692;52.998;9.116;2024-02-23T12:23:40;8.90;99.90
33328;DHT22;19692;52.998;9.116;2024-02-23T12:26:07;8.90;99.90
33328;DHT22;19692;52.998;9.116;2024-02-23T12:28:33;8.70;99.90
33328;DHT22;19692;52.998;9.116;2024-02-23T12:31:03;8.60;99.90
33328;DHT22;19692;52.998;9.116;2024-02-23T12:33:31;8.60;99.90
33328;DHT22;19692;52.998;9.116;2024-02-23T12:35:58;8.50;99.90
33328;DHT22;19692;52.998;9.116;2024-02-23T12:38:24;8.40;99.90
33328;DHT22;19692;52.998;9.116;2024-02-23T12:40:51;8.40;99.90
33328;DHT22;19692;52.998;9.116;2024-02-23T12:43:17;8.40;99.90
33328;DHT22;19692;52.998;9.116;2024-02-23T12:45:43;8.50;99.90
33328;DHT22;19692;52.998;9.116;2024-02-23T12:48:15;8.50;99.90
33328;DHT22;19692;52.998;9.116;2024-02-23T12:50:41;8.50;99.90
33328;DHT22;19692;52.998;9.116;2024-02-23T12:53:09;8.50;99.90
33328;DHT22;19692;52.998;9.116;2024-02-23T12:55:35;8.50;99.90
33328;DHT22;19692;52.998;9.116;2024-02-23T12:58:03;8.40;99.90
33328;DHT22;19692;52.998;9.116;2024-02-23T13:00:29;8.40;99.90
33328;DHT22;19692;52.998;9.116;2024-02-23T13:02:55;8.50;99.90
33328;DHT22;19692;52.998;9.116;2024-02-23T13:05:21;8.40;99.90
33328;DHT22;19692;52.998;9.116;2024-02-23T13:07:47;8.50;99.90
33328;DHT22;19692;52.998;9.116;2024-02-23T13:10:13;8.50;99.90
33328;DHT22;19692;52.998;9.116;2024-02-23T13:12:39;8.50;99.90
33328;DHT22;19692;52.998;9.116;2024-02-23T13:15:05;8.50;99.90
33328;DHT22;19692;52.998;9.116;2024-02-23T13:17:31;8.50;99.90
33328;DHT22;19692;52.998;9.116;2024-02-23T13:19:57;8.50;99.90
33328;DHT22;19692;52.998;9.116;2024-02-23T13:22:23;8.50;99.90
33328;DHT22;19692;52.998;9.116;2024-02-23T13:24:49;8.50;99.90
33328;DHT22;19692;52.998;9.116;2024-02-23T13:27:15;8.50;99.90
33328;DHT22;19692;52.998;9.116;2024-02-23T13:29:41;8.60;99.90
33328;DHT22;19692;52.998;9.116;2024-02-23T13:32:07;8.70;99.90
33328;DHT22;19692;52.998;9.116;2024-02-23T13:34:33;8.80;99.90
33328;DHT22;19692;52.998;9.116;2024-02-23T13:36:58;8.90;99.90
33328;DHT22;19692;52.998;9.116;2024-02-23T13:39:24;9.00;99.90
33328;DHT22;19692;52.998;9.116;2024-02-23T13:41:50;9.00;99.90
33328;DHT22;19692;52.998;9.116;2024-02-23T13:44:15;9.10;99.90
33328;DHT22;19692;52.998;9.116;2024-02-23T13:46:41;9.10;99.90
33328;DHT22;19692;52.998;9.116;2024-02-23T13:49:07;9.20;99.90
33328;DHT22;19692;52.998;9.116;2024-02-23T13:51:35;9.30;99.90
33328;DHT22;19692;52.998;9.116;2024-02-23T13:54:01;9.30;99.90
33328;DHT22;19692;52.998;9.116;2024-02-23T13:56:26;9.30;99.90
33328;DHT22;19692;52.998;9.116;2024-02-23T13:58:52;9.30;99.90
33328;DHT22;19692;52.998;9.116;2024-02-23T14:01:18;9.30;99.90
33328;DHT22;19692;52.998;9.116;2024-02-23T14:03:43;9.20;99.90
33328;DHT22;19692;52.998;9.116;2024-02-23T14:06:09;9.20;99.90
33328;DHT22;19692;52.998;9.116;2024-02-23T14:08:35;9.10;99.90
33328;DHT22;19692;52.998;9.116;2024-02-23T14:11:03;9.10;99.90
33328;DHT22;19692;52.998;9.116;2024-02-23T14:13:31;9.10;99.90
33328;DHT22;19692;52.998;9.116;2024-02-23T14:15:58;9.00;99.90
33328;DHT22;19692;52.998;9.116;2024-02-23T14:18:23;9.00;99.90
33328;DHT22;19692;52.998;9.116;2024-02-23T14:20:49;8.90;99.90
33328;DHT22;19692;52.998;9.116;2024-02-23T14:23:17;9.00;99.90
33328;DHT22;19692;52.998;9.116;2024-02-23T14:25:43;8.90;99.90
33328;DHT22;19692;52.998;9.116;2024-02-23T14:28:09;8.90;99.90
33328;DHT22;19692;52.998;9.116;2024-02-23T14:30:35;9.00;99.90
33328;DHT22;19692;52.998;9.116;2024-02-23T14:33:02;9.00;99.90
33328;DHT22;19692;52.998;9.116;2024-02-23T14:35:27;8.90;99.90
33328;DHT22;19692;52.998;9.116;2024-02-23T14:37:54;8.90;99.90
33328;DHT22;19692;52.998;9.116;2024-02-23T14:40:20;8.80;99.90
33328;DHT22;19692;52.998;9.116;2024-02-23T14:42:45;8.90;99.90
33328;DHT22;19692;52.998;9.116;2024-02-23T14:45:11;9.00;99.90
33328;DHT22;19692;52.998;9.116;2024-02-23T14:47:39;8.90;99.90
33328;DHT22;19692;52.998;9.116;2024-02-23T14:50:05;8.80;99.90
33328;DHT22;19692;52.998;9.116;2024-02-23T14:52:31;8.80;99.90
33328;DHT22;19692;52.998;9.116;2024-02-23T14:54:57;8.90;99.90
33328;DHT22;19692;52.998;9.116;2024-02-23T14:57:23;8.90;99.90
33328;DHT22;19692;52.998;9.116;2024-02-23T14:59:48;8.90;99.90
33328;DHT22;19692;52.998;9.116;2024-02-23T15:02:22;9.00;99.90
33328;DHT22;19692;52.998;9.116;2024-02-23T15:04:48;9.10;99.90
33328;DHT22;19692;52.998;9.116;2024-02-23T15:07:14;9.10;99.90
33328;DHT22;19692;52.998;9.116;2024-02-23T15:09:40;9.10;99.90
33328;DHT22;19692;52.998;9.116;2024-02-23T15:12:06;9.10;99.90
33328;DHT22;19692;52.998;9.116;2024-02-23T15:14:32;9.10;99.90
33328;DHT22;19692;52.998;9.116;2024-02-23T15:16:58;9.20;99.90
33328;DHT22;19692;52.998;9.116;2024-02-23T15:19:24;9.10;99.90
33328;DHT22;19692;52.998;9.116;2024-02-23T15:21:51;9.10;99.90
33328;DHT22;19692;52.998;9.116;2024-02-23T15:24:18;9.10;99.90
33328;DHT22;19692;52.998;9.116;2024-02-23T15:26:45;9.00;99.90
33328;DHT22;19692;52.998;9.116;2024-02-23T15:29:11;8.90;99.90
33328;DHT22;19692;52.998;9.116;2024-02-23T15:31:38;8.90;99.90
33328;DHT22;19692;52.998;9.116;2024-02-23T15:34:05;8.90;99.90
33328;DHT22;19692;52.998;9.116;2024-02-23T15:36:31;8.80;99.90
33328;DHT22;19692;52.998;9.116;2024-02-23T15:38:57;8.80;99.90
33328;DHT22;19692;52.998;9.116;2024-02-23T15:41:25;8.70;99.90
33328;DHT22;19692;52.998;9.116;2024-02-23T15:43:51;8.80;99.90